South Windham, CT

11:04 PM EDT on May 22, 2015 (GMT -0400)
Hartford-brainard | | Change Station
CLOSE
Current Station
Airport
Location: Hartford,
Elevation: 16 ft
Nearby Weather Stations
Active Advisory: Special Statement

Elev 16 ft 41.74 °N, 72.65 °W | Updated 11 minutes ago

Clear
Clear
57 °F
Feels Like 57 °F
N
6
Wind Variable Wind from Variable

Today
High -- | Low -- °F
--% Chance of Precip.
Yesterday
High -- | Low -- °F
Precip. -- in
5:23 AM 8:08 PM
Waxing Crescent, 26% visible
Pressure 30.10 in
Visibility 10.0 miles
Clouds Clear
Dew Point 27 °F
Humidity 32%
Rainfall 0.00 in
Snow Depth Not available.
UV 0 out of 12
Pollen 9.30 out of 12
Air Quality Not available.
Flu Activity Regional
METAR KHFD 230253Z AUTO VRB05KT 10SM CLR 14/M03 A3010 RMK AO2 SLP193 T01391028 51039

More Conditions Fewer Conditions

Pressure 30.10 in
Visibility 10.0 miles
Clouds Clear
Dew Point 27 °F
Humidity 32%
Rainfall 0.00 in
Snow Depth Not available.
UV 0 out of 12
Pollen 9.30 out of 12
Air Quality Not available.
Flu Activity Regional
METAR KHFD 230253Z AUTO VRB05KT 10SM CLR 14/M03 A3010 RMK AO2 SLP193 T01391028 51039

More Conditions Fewer Conditions

10-Day Weather Forecast

Almanac

Astronomy

May. 22, 2015 Rise Set
Actual Time
Civil Twilight
Nautical Twilight
Astronomical Twilight
Moon
Length of Visible Light
Length of Day
Tomorrow will be .
, % of the Moon is Illuminated

Today's Extremes

State Highs State Lows

Community

WunderPhotos

Upload Photos

1,823,374 photos uploaded!

WunderBlogs® & News

Nearby

Air Quality

  Air Quality AQ Index Pollutant
Not available.

Snow Depth

Station Depth Elevation

Earthquake Activity

City Distance Mag. Time & Date
Minimum magnitude displayed is 2.5.

Coastal Water Temperatures

Place Temperature

Stations

Nearby Weather Stations

Station Location Temp. Windchill Dew Point Humidity Wind Precip. Elev Updated Type
                   
Special Statement
Statement as of 9:30 PM EDT on May 22, 2015

... Elevated fire weather risk Saturday...

Drier air will spread into the region overnight and Saturday...
resulting in relative humidities between 20 and 30 percent
Saturday afternoon.

West to northwest winds gusting to 25 mph Saturday... combined with
a lack of significant rainfall over the past few days... will
result in an elevated fire spread potential.


Jwd

930 PM EDT Fri may 22 2015

... Elevated fire weather risk Saturday...

Drier air will spread into the region overnight and Saturday...
resulting in relative humidities between 20 and 30 percent
Saturday afternoon.

West to northwest winds gusting to 25 mph Saturday... combined with
a lack of significant rainfall over the past few days... will
result in an elevated fire spread potential.


Jwd